sensor_id;sensor_type;location;lat;lon;timestamp;P1;durP1;ratioP1;P2;durP2;ratioP2
42104;SDS011;68365;51.472;5.712;2023-04-01T00:00:56;4.35;;;1.60;;
42104;SDS011;68365;51.472;5.712;2023-04-01T00:03:23;3.33;;;1.40;;
42104;SDS011;68365;51.472;5.712;2023-04-01T00:05:51;3.38;;;1.50;;
42104;SDS011;68365;51.472;5.712;2023-04-01T00:08:18;3.83;;;1.50;;
42104;SDS011;68365;51.472;5.712;2023-04-01T00:10:44;4.35;;;1.70;;
42104;SDS011;68365;51.472;5.712;2023-04-01T00:13:10;3.72;;;1.50;;
42104;SDS011;68365;51.472;5.712;2023-04-01T00:15:37;4.80;;;1.85;;
42104;SDS011;68365;51.472;5.712;2023-04-01T00:18:02;5.13;;;1.42;;
42104;SDS011;68365;51.472;5.712;2023-04-01T00:20:29;3.67;;;1.30;;
42104;SDS011;68365;51.472;5.712;2023-04-01T00:22:55;2.40;;;1.10;;
42104;SDS011;68365;51.472;5.712;2023-04-01T00:25:22;2.95;;;1.40;;
42104;SDS011;68365;51.472;5.712;2023-04-01T00:27:49;3.55;;;1.40;;
42104;SDS011;68365;51.472;5.712;2023-04-01T00:30:15;3.78;;;1.50;;
42104;SDS011;68365;51.472;5.712;2023-04-01T00:32:42;2.38;;;1.27;;
42104;SDS011;68365;51.472;5.712;2023-04-01T00:35:08;3.42;;;1.20;;
42104;SDS011;68365;51.472;5.712;2023-04-01T00:37:35;2.90;;;1.33;;
42104;SDS011;68365;51.472;5.712;2023-04-01T00:40:03;3.53;;;1.60;;
42104;SDS011;68365;51.472;5.712;2023-04-01T00:42:31;3.90;;;1.45;;
42104;SDS011;68365;51.472;5.712;2023-04-01T00:44:57;2.97;;;1.30;;
42104;SDS011;68365;51.472;5.712;2023-04-01T00:47:43;3.97;;;1.70;;
42104;SDS011;68365;51.472;5.712;2023-04-01T00:50:09;3.08;;;1.10;;
42104;SDS011;68365;51.472;5.712;2023-04-01T00:52:35;3.75;;;1.60;;
42104;SDS011;68365;51.472;5.712;2023-04-01T00:55:01;3.42;;;1.25;;
42104;SDS011;68365;51.472;5.712;2023-04-01T00:57:32;2.95;;;1.50;;
42104;SDS011;68365;51.472;5.712;2023-04-01T01:00:04;2.83;;;1.35;;
42104;SDS011;68365;51.472;5.712;2023-04-01T01:02:34;3.42;;;1.40;;
42104;SDS011;68365;51.472;5.712;2023-04-01T01:05:00;2.53;;;1.45;;
42104;SDS011;68365;51.472;5.712;2023-04-01T01:07:38;4.13;;;1.45;;
42104;SDS011;68365;51.472;5.712;2023-04-01T01:10:29;3.72;;;1.33;;
42104;SDS011;68365;51.472;5.712;2023-04-01T01:25:17;2.38;;;1.20;;
42104;SDS011;68365;51.472;5.712;2023-04-01T01:31:02;3.42;;;1.33;;
42104;SDS011;68365;51.472;5.712;2023-04-01T01:36:25;2.58;;;1.10;;
42104;SDS011;68365;51.472;5.712;2023-04-01T01:38:59;2.13;;;1.30;;
42104;SDS011;68365;51.472;5.712;2023-04-01T01:41:26;3.08;;;1.23;;
42104;SDS011;68365;51.472;5.712;2023-04-01T01:43:55;2.33;;;1.10;;
42104;SDS011;68365;51.472;5.712;2023-04-01T01:46:25;2.70;;;1.00;;
42104;SDS011;68365;51.472;5.712;2023-04-01T01:48:53;4.25;;;1.30;;
42104;SDS011;68365;51.472;5.712;2023-04-01T01:51:21;3.33;;;1.20;;
42104;SDS011;68365;51.472;5.712;2023-04-01T01:53:48;4.30;;;1.40;;
42104;SDS011;68365;51.472;5.712;2023-04-01T01:56:14;4.13;;;1.60;;
42104;SDS011;68365;51.472;5.712;2023-04-01T01:58:45;2.65;;;1.10;;
42104;SDS011;68365;51.472;5.712;2023-04-01T02:01:17;3.10;;;1.25;;
42104;SDS011;68365;51.472;5.712;2023-04-01T02:03:51;3.88;;;0.95;;
42104;SDS011;68365;51.472;5.712;2023-04-01T02:06:19;2.90;;;1.30;;
42104;SDS011;68365;51.472;5.712;2023-04-01T02:08:49;4.03;;;1.33;;
42104;SDS011;68365;51.472;5.712;2023-04-01T02:11:28;4.28;;;1.20;;
42104;SDS011;68365;51.472;5.712;2023-04-01T02:14:11;2.88;;;1.17;;
42104;SDS011;68365;51.472;5.712;2023-04-01T02:16:58;1.80;;;0.80;;
42104;SDS011;68365;51.472;5.712;2023-04-01T02:19:39;2.55;;;1.02;;
42104;SDS011;68365;51.472;5.712;2023-04-01T02:22:18;3.15;;;1.30;;
42104;SDS011;68365;51.472;5.712;2023-04-01T02:24:53;2.70;;;1.20;;
42104;SDS011;68365;51.472;5.712;2023-04-01T02:27:24;1.77;;;1.02;;
42104;SDS011;68365;51.472;5.712;2023-04-01T02:29:51;1.70;;;1.00;;
42104;SDS011;68365;51.472;5.712;2023-04-01T02:32:18;2.15;;;1.20;;
42104;SDS011;68365;51.472;5.712;2023-04-01T02:34:45;4.07;;;1.20;;
42104;SDS011;68365;51.472;5.712;2023-04-01T02:37:13;3.53;;;1.10;;
42104;SDS011;68365;51.472;5.712;2023-04-01T02:39:40;2.17;;;0.90;;
42104;SDS011;68365;51.472;5.712;2023-04-01T02:42:07;2.85;;;1.13;;
42104;SDS011;68365;51.472;5.712;2023-04-01T02:44:33;3.45;;;1.20;;
42104;SDS011;68365;51.472;5.712;2023-04-01T02:47:00;2.50;;;1.10;;
42104;SDS011;68365;51.472;5.712;2023-04-01T02:49:25;2.13;;;0.90;;
42104;SDS011;68365;51.472;5.712;2023-04-01T02:51:51;2.45;;;1.02;;
42104;SDS011;68365;51.472;5.712;2023-04-01T02:54:18;2.53;;;1.10;;
42104;SDS011;68365;51.472;5.712;2023-04-01T02:56:44;1.98;;;1.20;;
42104;SDS011;68365;51.472;5.712;2023-04-01T02:59:10;2.65;;;1.00;;
42104;SDS011;68365;51.472;5.712;2023-04-01T03:01:36;1.50;;;0.90;;
42104;SDS011;68365;51.472;5.712;2023-04-01T03:04:02;2.42;;;1.10;;
42104;SDS011;68365;51.472;5.712;2023-04-01T03:06:29;2.33;;;1.13;;
42104;SDS011;68365;51.472;5.712;2023-04-01T03:08:55;2.30;;;1.05;;
42104;SDS011;68365;51.472;5.712;2023-04-01T03:11:21;2.42;;;1.10;;
42104;SDS011;68365;51.472;5.712;2023-04-01T03:13:47;1.65;;;0.90;;
42104;SDS011;68365;51.472;5.712;2023-04-01T03:16:13;3.35;;;1.10;;
42104;SDS011;68365;51.472;5.712;2023-04-01T03:18:39;2.17;;;1.20;;
42104;SDS011;68365;51.472;5.712;2023-04-01T03:21:19;3.25;;;1.00;;
42104;SDS011;68365;51.472;5.712;2023-04-01T03:23:48;1.50;;;0.90;;
42104;SDS011;68365;51.472;5.712;2023-04-01T03:26:14;2.45;;;1.10;;
42104;SDS011;68365;51.472;5.712;2023-04-01T03:28:41;2.63;;;1.17;;
42104;SDS011;68365;51.472;5.712;2023-04-01T03:31:07;2.28;;;0.90;;
42104;SDS011;68365;51.472;5.712;2023-04-01T03:33:33;2.13;;;1.05;;
42104;SDS011;68365;51.472;5.712;2023-04-01T03:35:59;2.13;;;1.00;;
42104;SDS011;68365;51.472;5.712;2023-04-01T03:38:25;3.35;;;1.00;;
42104;SDS011;68365;51.472;5.712;2023-04-01T03:40:51;2.47;;;1.10;;
42104;SDS011;68365;51.472;5.712;2023-04-01T03:43:17;1.50;;;1.00;;
42104;SDS011;68365;51.472;5.712;2023-04-01T03:45:43;1.65;;;1.00;;
42104;SDS011;68365;51.472;5.712;2023-04-01T03:48:10;1.35;;;0.82;;
42104;SDS011;68365;51.472;5.712;2023-04-01T03:50:36;1.73;;;0.90;;
42104;SDS011;68365;51.472;5.712;2023-04-01T03:53:02;2.47;;;1.10;;
42104;SDS011;68365;51.472;5.712;2023-04-01T03:55:27;3.33;;;1.02;;
42104;SDS011;68365;51.472;5.712;2023-04-01T03:57:53;1.45;;;0.70;;
42104;SDS011;68365;51.472;5.712;2023-04-01T04:00:19;3.28;;;1.02;;
42104;SDS011;68365;51.472;5.712;2023-04-01T04:02:45;1.75;;;0.90;;
42104;SDS011;68365;51.472;5.712;2023-04-01T04:05:11;2.13;;;1.00;;
42104;SDS011;68365;51.472;5.712;2023-04-01T04:07:38;1.58;;;0.80;;
42104;SDS011;68365;51.472;5.712;2023-04-01T04:10:04;3.08;;;1.20;;
42104;SDS011;68365;51.472;5.712;2023-04-01T04:12:31;1.70;;;1.05;;
42104;SDS011;68365;51.472;5.712;2023-04-01T04:14:57;1.65;;;0.80;;
42104;SDS011;68365;51.472;5.712;2023-04-01T04:17:23;1.85;;;1.10;;
42104;SDS011;68365;51.472;5.712;2023-04-01T04:19:49;1.85;;;0.93;;
42104;SDS011;68365;51.472;5.712;2023-04-01T04:22:14;1.90;;;1.10;;
42104;SDS011;68365;51.472;5.712;2023-04-01T04:24:40;2.85;;;1.02;;
42104;SDS011;68365;51.472;5.712;2023-04-01T04:27:06;1.88;;;0.88;;
42104;SDS011;68365;51.472;5.712;2023-04-01T04:29:32;1.83;;;1.00;;
42104;SDS011;68365;51.472;5.712;2023-04-01T04:31:57;2.63;;;1.10;;
42104;SDS011;68365;51.472;5.712;2023-04-01T04:34:23;2.08;;;1.05;;
42104;SDS011;68365;51.472;5.712;2023-04-01T04:36:49;1.58;;;1.10;;
42104;SDS011;68365;51.472;5.712;2023-04-01T04:39:15;1.88;;;0.93;;
42104;SDS011;68365;51.472;5.712;2023-04-01T04:41:41;1.02;;;0.82;;
42104;SDS011;68365;51.472;5.712;2023-04-01T04:44:07;2.38;;;0.98;;
42104;SDS011;68365;51.472;5.712;2023-04-01T04:46:33;2.15;;;1.00;;
42104;SDS011;68365;51.472;5.712;2023-04-01T04:48:58;1.63;;;1.02;;
42104;SDS011;68365;51.472;5.712;2023-04-01T04:51:24;1.15;;;0.73;;
42104;SDS011;68365;51.472;5.712;2023-04-01T04:53:51;2.30;;;1.08;;
42104;SDS011;68365;51.472;5.712;2023-04-01T04:56:17;1.35;;;0.88;;
42104;SDS011;68365;51.472;5.712;2023-04-01T04:58:45;1.60;;;0.90;;
42104;SDS011;68365;51.472;5.712;2023-04-01T05:01:12;2.00;;;1.08;;
42104;SDS011;68365;51.472;5.712;2023-04-01T05:03:39;1.83;;;0.93;;
42104;SDS011;68365;51.472;5.712;2023-04-01T05:06:06;2.00;;;1.00;;
42104;SDS011;68365;51.472;5.712;2023-04-01T05:08:34;1.83;;;0.80;;
42104;SDS011;68365;51.472;5.712;2023-04-01T05:11:00;2.22;;;1.23;;
42104;SDS011;68365;51.472;5.712;2023-04-01T05:13:27;2.40;;;1.10;;
42104;SDS011;68365;51.472;5.712;2023-04-01T05:15:54;1.20;;;0.80;;
42104;SDS011;68365;51.472;5.712;2023-04-01T05:18:20;2.25;;;1.00;;
42104;SDS011;68365;51.472;5.712;2023-04-01T05:20:50;2.33;;;1.02;;
42104;SDS011;68365;51.472;5.712;2023-04-01T05:23:18;1.73;;;0.90;;
42104;SDS011;68365;51.472;5.712;2023-04-01T05:25:48;1.38;;;0.88;;
42104;SDS011;68365;51.472;5.712;2023-04-01T05:28:16;1.42;;;0.80;;
42104;SDS011;68365;51.472;5.712;2023-04-01T05:30:42;1.73;;;0.90;;
42104;SDS011;68365;51.472;5.712;2023-04-01T05:33:09;1.27;;;0.90;;
42104;SDS011;68365;51.472;5.712;2023-04-01T05:35:37;1.33;;;0.90;;
42104;SDS011;68365;51.472;5.712;2023-04-01T05:38:03;1.70;;;1.00;;
42104;SDS011;68365;51.472;5.712;2023-04-01T05:40:29;1.50;;;0.77;;
42104;SDS011;68365;51.472;5.712;2023-04-01T05:42:56;2.53;;;0.98;;
42104;SDS011;68365;51.472;5.712;2023-04-01T05:45:22;1.38;;;0.85;;
42104;SDS011;68365;51.472;5.712;2023-04-01T05:47:48;1.35;;;0.90;;
42104;SDS011;68365;51.472;5.712;2023-04-01T05:50:14;1.23;;;0.90;;
42104;SDS011;68365;51.472;5.712;2023-04-01T05:52:40;1.50;;;0.95;;
42104;SDS011;68365;51.472;5.712;2023-04-01T05:55:06;1.52;;;0.95;;
42104;SDS011;68365;51.472;5.712;2023-04-01T05:57:32;1.20;;;0.90;;
42104;SDS011;68365;51.472;5.712;2023-04-01T05:59:58;1.08;;;0.73;;
42104;SDS011;68365;51.472;5.712;2023-04-01T06:02:24;2.72;;;0.90;;
42104;SDS011;68365;51.472;5.712;2023-04-01T06:04:51;1.20;;;0.85;;
42104;SDS011;68365;51.472;5.712;2023-04-01T06:07:28;2.47;;;1.00;;
42104;SDS011;68365;51.472;5.712;2023-04-01T06:09:54;0.80;;;0.65;;
42104;SDS011;68365;51.472;5.712;2023-04-01T06:12:33;1.48;;;0.90;;
42104;SDS011;68365;51.472;5.712;2023-04-01T06:20:50;1.17;;;0.70;;
42104;SDS011;68365;51.472;5.712;2023-04-01T06:27:02;0.98;;;0.70;;
42104;SDS011;68365;51.472;5.712;2023-04-01T06:33:02;1.42;;;0.90;;
42104;SDS011;68365;51.472;5.712;2023-04-01T06:36:03;1.98;;;0.80;;
42104;SDS011;68365;51.472;5.712;2023-04-01T06:42:02;1.33;;;0.70;;
42104;SDS011;68365;51.472;5.712;2023-04-01T06:48:36;1.38;;;0.90;;
42104;SDS011;68365;51.472;5.712;2023-04-01T06:51:25;1.10;;;0.80;;
42104;SDS011;68365;51.472;5.712;2023-04-01T06:54:03;0.73;;;0.70;;
42104;SDS011;68365;51.472;5.712;2023-04-01T06:56:36;1.23;;;0.70;;
42104;SDS011;68365;51.472;5.712;2023-04-01T06:59:47;1.15;;;0.80;;
42104;SDS011;68365;51.472;5.712;2023-04-01T07:04:33;1.80;;;1.00;;
42104;SDS011;68365;51.472;5.712;2023-04-01T07:07:21;0.90;;;0.77;;
42104;SDS011;68365;51.472;5.712;2023-04-01T07:10:03;1.10;;;0.70;;
42104;SDS011;68365;51.472;5.712;2023-04-01T07:12:53;1.20;;;0.75;;
42104;SDS011;68365;51.472;5.712;2023-04-01T07:15:28;2.45;;;0.70;;
42104;SDS011;68365;51.472;5.712;2023-04-01T07:21:20;4.35;;;0.82;;
42104;SDS011;68365;51.472;5.712;2023-04-01T07:23:54;1.20;;;0.80;;
42104;SDS011;68365;51.472;5.712;2023-04-01T07:26:26;2.25;;;0.80;;
42104;SDS011;68365;51.472;5.712;2023-04-01T07:28:52;2.28;;;0.82;;
42104;SDS011;68365;51.472;5.712;2023-04-01T07:31:25;1.20;;;0.90;;
42104;SDS011;68365;51.472;5.712;2023-04-01T07:36:54;1.90;;;0.80;;
42104;SDS011;68365;51.472;5.712;2023-04-01T07:42:57;1.60;;;0.80;;
42104;SDS011;68365;51.472;5.712;2023-04-01T07:51:22;3.80;;;0.90;;
42104;SDS011;68365;51.472;5.712;2023-04-01T07:59:54;3.90;;;0.90;;
42104;SDS011;68365;51.472;5.712;2023-04-01T08:05:54;2.55;;;0.90;;
42104;SDS011;68365;51.472;5.712;2023-04-01T08:17:00;3.75;;;0.93;;
42104;SDS011;68365;51.472;5.712;2023-04-01T08:22:19;1.45;;;1.00;;
42104;SDS011;68365;51.472;5.712;2023-04-01T08:25:09;2.75;;;1.00;;
42104;SDS011;68365;51.472;5.712;2023-04-01T08:27:48;1.33;;;0.90;;
42104;SDS011;68365;51.472;5.712;2023-04-01T08:30:30;1.55;;;0.95;;
42104;SDS011;68365;51.472;5.712;2023-04-01T08:33:45;3.22;;;0.80;;
42104;SDS011;68365;51.472;5.712;2023-04-01T08:36:14;2.88;;;0.93;;
42104;SDS011;68365;51.472;5.712;2023-04-01T08:38:54;3.25;;;1.08;;
42104;SDS011;68365;51.472;5.712;2023-04-01T08:41:42;3.15;;;0.90;;
42104;SDS011;68365;51.472;5.712;2023-04-01T08:48:13;2.70;;;0.98;;
42104;SDS011;68365;51.472;5.712;2023-04-01T08:56:20;1.75;;;1.00;;
42104;SDS011;68365;51.472;5.712;2023-04-01T09:01:58;2.33;;;1.02;;
42104;SDS011;68365;51.472;5.712;2023-04-01T09:13:27;7.00;;;1.52;;
42104;SDS011;68365;51.472;5.712;2023-04-01T09:19:19;2.97;;;1.27;;
42104;SDS011;68365;51.472;5.712;2023-04-01T09:22:32;3.47;;;1.17;;
42104;SDS011;68365;51.472;5.712;2023-04-01T09:25:22;3.70;;;1.27;;
42104;SDS011;68365;51.472;5.712;2023-04-01T09:31:25;2.13;;;1.20;;
42104;SDS011;68365;51.472;5.712;2023-04-01T09:52:02;5.38;;;1.20;;
42104;SDS011;68365;51.472;5.712;2023-04-01T09:58:07;6.18;;;1.80;;
42104;SDS011;68365;51.472;5.712;2023-04-01T10:29:36;2.45;;;1.13;;
42104;SDS011;68365;51.472;5.712;2023-04-01T10:32:18;2.25;;;1.00;;
42104;SDS011;68365;51.472;5.712;2023-04-01T10:38:19;3.83;;;1.15;;
42104;SDS011;68365;51.472;5.712;2023-04-01T10:41:11;1.88;;;0.95;;
42104;SDS011;68365;51.472;5.712;2023-04-01T10:47:03;5.40;;;1.40;;
42104;SDS011;68365;51.472;5.712;2023-04-01T11:20:13;2.35;;;1.30;;
42104;SDS011;68365;51.472;5.712;2023-04-01T11:56:10;3.20;;;1.50;;
42104;SDS011;68365;51.472;5.712;2023-04-01T12:02:07;3.42;;;1.52;;
42104;SDS011;68365;51.472;5.712;2023-04-01T12:19:36;2.75;;;1.48;;
42104;SDS011;68365;51.472;5.712;2023-04-01T12:22:31;4.72;;;1.70;;
42104;SDS011;68365;51.472;5.712;2023-04-01T12:25:52;7.93;;;1.52;;
42104;SDS011;68365;51.472;5.712;2023-04-01T12:31:59;4.57;;;1.67;;
42104;SDS011;68365;51.472;5.712;2023-04-01T12:44:04;4.65;;;1.42;;
42104;SDS011;68365;51.472;5.712;2023-04-01T12:47:23;1.67;;;1.10;;
42104;SDS011;68365;51.472;5.712;2023-04-01T12:53:11;2.17;;;1.10;;
42104;SDS011;68365;51.472;5.712;2023-04-01T12:55:48;2.50;;;1.10;;
42104;SDS011;68365;51.472;5.712;2023-04-01T13:00:54;3.08;;;1.17;;
42104;SDS011;68365;51.472;5.712;2023-04-01T13:09:17;1.27;;;1.00;;
42104;SDS011;68365;51.472;5.712;2023-04-01T13:15:24;4.75;;;1.05;;
42104;SDS011;68365;51.472;5.712;2023-04-01T13:29:14;3.38;;;0.98;;
42104;SDS011;68365;51.472;5.712;2023-04-01T13:35:14;3.60;;;1.20;;
42104;SDS011;68365;51.472;5.712;2023-04-01T13:44:11;3.13;;;0.95;;
42104;SDS011;68365;51.472;5.712;2023-04-01T13:50:46;3.78;;;1.00;;
42104;SDS011;68365;51.472;5.712;2023-04-01T14:13:28;6.43;;;1.20;;
42104;SDS011;68365;51.472;5.712;2023-04-01T14:36:52;3.75;;;1.38;;
42104;SDS011;68365;51.472;5.712;2023-04-01T14:43:14;2.28;;;1.20;;
42104;SDS011;68365;51.472;5.712;2023-04-01T14:46:13;7.95;;;1.33;;
42104;SDS011;68365;51.472;5.712;2023-04-01T14:52:16;2.25;;;1.13;;
42104;SDS011;68365;51.472;5.712;2023-04-01T14:54:55;4.30;;;1.23;;
42104;SDS011;68365;51.472;5.712;2023-04-01T14:57:24;2.58;;;1.10;;
42104;SDS011;68365;51.472;5.712;2023-04-01T15:05:39;2.08;;;1.20;;
42104;SDS011;68365;51.472;5.712;2023-04-01T15:11:16;5.93;;;1.20;;
42104;SDS011;68365;51.472;5.712;2023-04-01T15:14:26;3.67;;;1.38;;
42104;SDS011;68365;51.472;5.712;2023-04-01T15:28:28;3.58;;;1.40;;
42104;SDS011;68365;51.472;5.712;2023-04-01T15:31:24;2.05;;;1.15;;
42104;SDS011;68365;51.472;5.712;2023-04-01T15:37:14;4.57;;;1.15;;
42104;SDS011;68365;51.472;5.712;2023-04-01T15:43:14;1.90;;;1.10;;
42104;SDS011;68365;51.472;5.712;2023-04-01T15:46:09;4.05;;;1.30;;
42104;SDS011;68365;51.472;5.712;2023-04-01T16:03:58;4.43;;;1.45;;
42104;SDS011;68365;51.472;5.712;2023-04-01T16:15:47;6.55;;;1.45;;
42104;SDS011;68365;51.472;5.712;2023-04-01T16:30:03;7.57;;;1.77;;
42104;SDS011;68365;51.472;5.712;2023-04-01T16:33:01;3.33;;;1.40;;
42104;SDS011;68365;51.472;5.712;2023-04-01T16:35:59;1.92;;;1.30;;
42104;SDS011;68365;51.472;5.712;2023-04-01T16:38:40;2.13;;;1.40;;
42104;SDS011;68365;51.472;5.712;2023-04-01T16:41:36;3.70;;;1.48;;
42104;SDS011;68365;51.472;5.712;2023-04-01T16:44:53;5.60;;;1.73;;
42104;SDS011;68365;51.472;5.712;2023-04-01T16:47:45;3.75;;;2.08;;
42104;SDS011;68365;51.472;5.712;2023-04-01T16:58:27;8.32;;;3.60;;
42104;SDS011;68365;51.472;5.712;2023-04-01T17:01:05;10.07;;;2.80;;
42104;SDS011;68365;51.472;5.712;2023-04-01T17:03:44;9.13;;;2.95;;
42104;SDS011;68365;51.472;5.712;2023-04-01T17:15:31;7.65;;;3.08;;
42104;SDS011;68365;51.472;5.712;2023-04-01T17:26:49;5.78;;;3.00;;
42104;SDS011;68365;51.472;5.712;2023-04-01T17:35:32;5.10;;;2.70;;
42104;SDS011;68365;51.472;5.712;2023-04-01T17:38:10;6.78;;;2.88;;
42104;SDS011;68365;51.472;5.712;2023-04-01T17:58:22;3.15;;;2.00;;
42104;SDS011;68365;51.472;5.712;2023-04-01T18:07:03;3.20;;;2.15;;
42104;SDS011;68365;51.472;5.712;2023-04-01T18:12:26;2.50;;;1.73;;
42104;SDS011;68365;51.472;5.712;2023-04-01T18:15:38;5.57;;;2.35;;
42104;SDS011;68365;51.472;5.712;2023-04-01T18:24:27;8.45;;;2.47;;
42104;SDS011;68365;51.472;5.712;2023-04-01T18:35:29;4.78;;;1.98;;
42104;SDS011;68365;51.472;5.712;2023-04-01T18:38:30;5.32;;;2.20;;
42104;SDS011;68365;51.472;5.712;2023-04-01T18:41:11;7.80;;;2.30;;
42104;SDS011;68365;51.472;5.712;2023-04-01T18:52:37;5.88;;;2.67;;
42104;SDS011;68365;51.472;5.712;2023-04-01T18:55:22;2.33;;;1.95;;
42104;SDS011;68365;51.472;5.712;2023-04-01T18:57:58;3.20;;;2.30;;
42104;SDS011;68365;51.472;5.712;2023-04-01T19:00:51;5.65;;;2.25;;
42104;SDS011;68365;51.472;5.712;2023-04-01T19:06:54;5.15;;;2.30;;
42104;SDS011;68365;51.472;5.712;2023-04-01T19:21:18;4.82;;;2.30;;
42104;SDS011;68365;51.472;5.712;2023-04-01T19:27:18;5.68;;;2.40;;
42104;SDS011;68365;51.472;5.712;2023-04-01T19:33:22;6.55;;;2.80;;
42104;SDS011;68365;51.472;5.712;2023-04-01T19:36:48;5.40;;;2.58;;
42104;SDS011;68365;51.472;5.712;2023-04-01T19:47:51;5.30;;;2.45;;
42104;SDS011;68365;51.472;5.712;2023-04-01T19:50:40;7.88;;;2.50;;
42104;SDS011;68365;51.472;5.712;2023-04-01T19:53:37;5.03;;;2.65;;
42104;SDS011;68365;51.472;5.712;2023-04-01T19:56:20;7.57;;;2.70;;
42104;SDS011;68365;51.472;5.712;2023-04-01T20:04:49;5.82;;;3.00;;
42104;SDS011;68365;51.472;5.712;2023-04-01T20:07:24;4.55;;;2.50;;
42104;SDS011;68365;51.472;5.712;2023-04-01T20:15:43;5.25;;;2.58;;
42104;SDS011;68365;51.472;5.712;2023-04-01T20:18:18;6.65;;;2.38;;
42104;SDS011;68365;51.472;5.712;2023-04-01T20:20:54;4.65;;;2.42;;
42104;SDS011;68365;51.472;5.712;2023-04-01T20:26:21;5.72;;;2.35;;
42104;SDS011;68365;51.472;5.712;2023-04-01T20:32:06;5.22;;;2.63;;
42104;SDS011;68365;51.472;5.712;2023-04-01T20:44:09;6.00;;;2.42;;
42104;SDS011;68365;51.472;5.712;2023-04-01T21:02:05;5.47;;;2.67;;
42104;SDS011;68365;51.472;5.712;2023-04-01T21:13:50;4.18;;;2.47;;
42104;SDS011;68365;51.472;5.712;2023-04-01T21:16:39;4.13;;;2.33;;
42104;SDS011;68365;51.472;5.712;2023-04-01T21:24:39;5.47;;;2.25;;
42104;SDS011;68365;51.472;5.712;2023-04-01T21:27:51;6.80;;;2.40;;
42104;SDS011;68365;51.472;5.712;2023-04-01T21:33:14;4.82;;;2.60;;
42104;SDS011;68365;51.472;5.712;2023-04-01T21:36:11;3.10;;;2.05;;
42104;SDS011;68365;51.472;5.712;2023-04-01T21:39:22;5.18;;;2.50;;
42104;SDS011;68365;51.472;5.712;2023-04-01T21:41:57;4.57;;;2.10;;
42104;SDS011;68365;51.472;5.712;2023-04-01T21:53:20;4.57;;;2.13;;
42104;SDS011;68365;51.472;5.712;2023-04-01T22:05:31;3.47;;;1.75;;
42104;SDS011;68365;51.472;5.712;2023-04-01T22:08:22;4.70;;;2.10;;
42104;SDS011;68365;51.472;5.712;2023-04-01T22:14:05;3.42;;;2.40;;
42104;SDS011;68365;51.472;5.712;2023-04-01T22:16:49;2.80;;;1.80;;
42104;SDS011;68365;51.472;5.712;2023-04-01T22:22:21;3.58;;;2.03;;
42104;SDS011;68365;51.472;5.712;2023-04-01T22:25:18;4.25;;;2.33;;
42104;SDS011;68365;51.472;5.712;2023-04-01T22:28:05;4.30;;;2.13;;
42104;SDS011;68365;51.472;5.712;2023-04-01T22:30:47;3.03;;;2.25;;
42104;SDS011;68365;51.472;5.712;2023-04-01T22:36:41;4.45;;;2.20;;
42104;SDS011;68365;51.472;5.712;2023-04-01T22:47:47;3.42;;;2.25;;
42104;SDS011;68365;51.472;5.712;2023-04-01T22:50:40;2.65;;;1.98;;
42104;SDS011;68365;51.472;5.712;2023-04-01T22:53:41;4.57;;;2.03;;
42104;SDS011;68365;51.472;5.712;2023-04-01T22:56:35;6.28;;;2.10;;
42104;SDS011;68365;51.472;5.712;2023-04-01T22:59:11;3.03;;;2.00;;
42104;SDS011;68365;51.472;5.712;2023-04-01T23:02:01;5.20;;;2.03;;
42104;SDS011;68365;51.472;5.712;2023-04-01T23:04:57;4.60;;;1.90;;
42104;SDS011;68365;51.472;5.712;2023-04-01T23:10:27;2.47;;;1.75;;
42104;SDS011;68365;51.472;5.712;2023-04-01T23:13:07;2.83;;;1.95;;
42104;SDS011;68365;51.472;5.712;2023-04-01T23:15:43;3.38;;;1.98;;
42104;SDS011;68365;51.472;5.712;2023-04-01T23:21:34;2.55;;;1.95;;
42104;SDS011;68365;51.472;5.712;2023-04-01T23:27:02;3.83;;;1.95;;
42104;SDS011;68365;51.472;5.712;2023-04-01T23:29:47;3.13;;;1.90;;
42104;SDS011;68365;51.472;5.712;2023-04-01T23:32:17;4.40;;;2.22;;
42104;SDS011;68365;51.472;5.712;2023-04-01T23:34:47;3.50;;;1.80;;
42104;SDS011;68365;51.472;5.712;2023-04-01T23:37:17;2.28;;;2.05;;
42104;SDS011;68365;51.472;5.712;2023-04-01T23:39:45;3.17;;;1.63;;
42104;SDS011;68365;51.472;5.712;2023-04-01T23:42:27;3.47;;;1.80;;
42104;SDS011;68365;51.472;5.712;2023-04-01T23:45:05;5.43;;;2.00;;
42104;SDS011;68365;51.472;5.712;2023-04-01T23:47:47;2.85;;;1.90;;
42104;SDS011;68365;51.472;5.712;2023-04-01T23:50:24;2.38;;;1.70;;
42104;SDS011;68365;51.472;5.712;2023-04-01T23:53:08;2.88;;;1.60;;
42104;SDS011;68365;51.472;5.712;2023-04-01T23:56:00;3.75;;;1.80;;
